Time;durP1;ratioP1;P1;durP2;ratioP2;P2;SDS_P1;SDS_P2;PMS_P1;PMS_P2;Temp;Humidity;BMP_temperature;BMP_pressure;BME280_temperature;BME280_humidity;BME280_pressure;Samples;Min_cycle;Max_cycle;Signal;HPM_P1;HPM_P2
2022/07/30 00:00:45;;;;;;;6.22;2.40;;;;;;;16.65;81.51;101607.13;2008297;29;23926;-73
2022/07/30 00:01:47;;;;;;;3.72;2.00;;;;;;;16.59;81.92;101610.06;2008410;29;23634;-73
2022/07/30 00:02:49;;;;;;;4.30;2.17;;;;;;;16.54;82.17;101606.66;2008560;29;32566;-73
2022/07/30 00:03:51;;;;;;;8.25;2.50;;;;;;;16.54;82.62;101607.50;2008425;29;36652;-73
2022/07/30 00:04:53;;;;;;;3.75;1.80;;;;;;;16.49;82.35;101604.13;2012401;29;31409;-73
2022/07/30 00:05:55;;;;;;;6.88;2.10;;;;;;;16.47;83.06;101608.69;2009703;29;27834;-71
2022/07/30 00:06:58;;;;;;;3.08;2.15;;;;;;;16.47;83.12;101614.09;2009210;29;33228;-73
2022/07/30 00:08:00;;;;;;;5.47;2.38;;;;;;;16.46;83.41;101606.06;2008971;29;32091;-73
2022/07/30 00:09:03;;;;;;;6.00;2.55;;;;;;;16.41;83.26;101607.09;2009007;29;24081;-73
2022/07/30 00:10:05;;;;;;;6.85;2.10;;;;;;;16.41;83.10;101611.63;2009484;29;31918;-73
2022/07/30 00:11:08;;;;;;;4.55;2.00;;;;;;;16.36;83.56;101608.19;2009131;29;31571;-73
2022/07/30 00:12:09;;;;;;;3.40;1.92;;;;;;;16.31;83.20;101603.00;2009797;29;25125;-73
2022/07/30 00:13:12;;;;;;;3.42;2.05;;;;;;;16.27;83.90;101600.44;2009428;29;27847;-73
2022/07/30 00:14:15;;;;;;;3.55;2.13;;;;;;;16.22;83.73;101600.59;2009501;29;30120;-73
2022/07/30 00:15:17;;;;;;;7.78;2.00;;;;;;;16.17;83.66;101594.50;2010191;29;22602;-73
2022/07/30 00:16:19;;;;;;;3.63;1.92;;;;;;;16.13;84.04;101603.63;2016427;29;28141;-73
2022/07/30 00:17:20;;;;;;;3.03;1.90;;;;;;;16.09;83.42;101601.97;2017856;29;20049;-74
2022/07/30 00:18:22;;;;;;;3.38;2.08;;;;;;;16.08;84.44;101602.91;2017207;29;35254;-73
2022/07/30 00:19:24;;;;;;;4.07;2.08;;;;;;;16.05;84.41;101600.34;2017230;29;29838;-74
2022/07/30 00:20:26;;;;;;;6.15;2.40;;;;;;;16.05;84.53;101601.19;2017831;29;20125;-73
2022/07/30 00:21:28;;;;;;;4.53;2.15;;;;;;;16.05;85.55;101601.19;2017139;29;34002;-73
2022/07/30 00:22:39;;;;;;;4.70;2.30;;;;;;;16.03;85.42;101601.25;2025069;29;20041;-73
2022/07/30 00:23:43;;;;;;;8.07;2.90;;;;;;;16.02;85.46;101604.91;2023058;29;34695;-73
2022/07/30 00:24:53;;;;;;;4.65;2.10;;;;;;;16.04;86.25;101604.81;2018090;29;20748;-73
2022/07/30 00:25:54;;;;;;;5.22;2.60;;;;;;;16.05;86.26;101600.34;2017638;29;29322;-73
2022/07/30 00:26:56;;;;;;;8.13;2.83;;;;;;;16.07;86.26;101602.03;2017097;29;32554;-73
2022/07/30 00:27:58;;;;;;;5.50;2.55;;;;;;;16.07;85.54;101601.16;2017996;29;20045;-73
2022/07/30 00:29:00;;;;;;;3.88;2.35;;;;;;;16.03;85.24;101595.84;2017640;29;20895;-73
2022/07/30 00:30:03;;;;;;;4.15;2.20;;;;;;;16.03;85.84;101590.44;2024450;29;20049;-73
2022/07/30 00:31:06;;;;;;;6.90;2.55;;;;;;;16.02;86.52;101588.69;2023832;29;20879;-72
2022/07/30 00:32:08;;;;;;;5.30;2.47;;;;;;;16.01;86.10;101592.31;2013632;29;20049;-78
2022/07/30 00:33:09;;;;;;;5.60;2.55;;;;;;;15.98;85.81;101589.72;2006268;29;20050;-77
2022/07/30 00:34:11;;;;;;;3.88;2.22;;;;;;;15.97;85.89;101601.47;2008957;29;20659;-78
2022/07/30 00:35:13;;;;;;;6.70;2.70;;;;;;;15.95;86.04;101597.06;2023301;29;26775;-77
2022/07/30 00:36:15;;;;;;;4.43;2.20;;;;;;;15.93;85.78;101597.09;2017135;29;22292;-77
2022/07/30 00:37:17;;;;;;;5.43;2.53;;;;;;;15.89;86.11;101595.44;2023697;29;27158;-73
2022/07/30 00:38:19;;;;;;;6.05;2.70;;;;;;;15.86;85.80;101592.84;2016783;29;20037;-77
2022/07/30 00:39:21;;;;;;;4.47;2.63;;;;;;;15.83;86.11;101591.16;2016469;29;20887;-73
2022/07/30 00:40:22;;;;;;;3.72;2.60;;;;;;;15.80;86.51;101593.94;2023835;29;20810;-75
2022/07/30 00:41:25;;;;;;;3.30;2.28;;;;;;;15.76;86.58;101597.69;2016566;29;20049;-75
2022/07/30 00:42:45;;;;;;;4.45;2.10;;;;;;;15.71;86.44;101586.13;2016550;29;20054;-73
2022/07/30 00:43:47;;;;;;;5.07;2.90;;;;;;;15.68;86.69;101586.22;2015856;29;20089;-74
2022/07/30 00:44:49;;;;;;;3.60;2.60;;;;;;;15.63;86.44;101591.81;2016202;29;22209;-76
2022/07/30 00:45:53;;;;;;;4.18;2.40;;;;;;;15.59;86.60;101590.09;2014285;29;20204;-74
2022/07/30 00:46:57;;;;;;;4.05;3.20;;;;;;;15.54;86.79;101581.31;2009033;29;21928;-73
2022/07/30 00:48:00;;;;;;;19.33;11.15;;;;;;;15.51;87.00;101578.72;2017140;29;20080;-74
2022/07/30 00:49:02;;;;;;;24.27;14.27;;;;;;;15.49;87.51;101585.97;2024181;29;25803;-72
2022/07/30 00:50:09;;;;;;;15.73;10.13;;;;;;;15.44;87.44;101574.44;2016347;29;20816;-73
2022/07/30 00:51:13;;;;;;;15.55;7.82;;;;;;;15.41;87.54;101579.94;2011413;29;20045;-73
2022/07/30 00:52:14;;;;;;;21.42;12.02;;;;;;;15.37;87.86;101580.97;2009643;29;20068;-74
2022/07/30 00:53:19;;;;;;;20.23;11.98;;;;;;;15.35;88.27;101574.75;2016281;29;20895;-73
2022/07/30 00:54:21;;;;;;;13.88;9.70;;;;;;;15.34;88.38;101572.97;2015735;29;33783;-72
2022/07/30 00:55:22;;;;;;;16.00;10.05;;;;;;;15.35;88.80;101574.75;2015959;29;26411;-75
2022/07/30 00:56:27;;;;;;;16.90;9.70;;;;;;;15.34;88.87;101567.56;2023797;29;20053;-74
2022/07/30 00:57:29;;;;;;;17.15;9.25;;;;;;;15.33;89.61;101576.63;2016398;29;20050;-73
2022/07/30 00:58:31;;;;;;;15.02;9.50;;;;;;;15.31;89.02;101573.97;2016209;29;20928;-73
2022/07/30 00:59:36;;;;;;;16.25;10.32;;;;;;;15.30;89.28;101574.00;2016961;29;26522;-76
2022/07/30 01:00:38;;;;;;;16.35;9.82;;;;;;;15.27;88.66;101573.19;2024136;29;20049;-76
2022/07/30 01:01:39;;;;;;;16.70;11.10;;;;;;;15.24;88.92;101570.59;2023698;29;20041;-76
2022/07/30 01:02:42;;;;;;;13.65;9.10;;;;;;;15.21;89.13;101572.50;2016750;29;20272;-76
2022/07/30 01:03:43;;;;;;;10.95;6.90;;;;;;;15.19;89.16;101569.84;2017048;29;20059;-76
2022/07/30 01:04:47;;;;;;;12.13;6.78;;;;;;;15.17;89.47;101570.84;2023822;29;20903;-77
2022/07/30 01:05:50;;;;;;;9.60;5.07;;;;;;;15.14;89.44;101569.09;2023495;29;22879;-78
2022/07/30 01:06:53;;;;;;;7.78;4.88;;;;;;;15.13;89.86;101570.06;2016987;29;20049;-77
2022/07/30 01:07:57;;;;;;;9.32;5.85;;;;;;;15.10;89.88;101572.84;2016839;29;20989;-76
2022/07/30 01:08:59;;;;;;;9.88;5.47;;;;;;;15.06;89.98;101580.16;2023541;29;24964;-75
2022/07/30 01:10:03;;;;;;;6.78;4.60;;;;;;;15.03;89.76;101577.53;2023968;29;22383;-75
2022/07/30 01:11:05;;;;;;;6.88;3.83;;;;;;;15.00;89.88;101579.44;2016593;29;20080;-75
2022/07/30 01:12:22;;;;;;;4.90;3.28;;;;;;;14.94;89.84;101568.84;2009894;29;20958;-74
2022/07/30 01:13:26;;;;;;;4.63;3.92;;;;;;;14.90;90.03;101576.16;2009858;29;20046;-75
2022/07/30 01:14:28;;;;;;;6.85;3.70;;;;;;;14.87;90.35;101576.25;2008897;29;22046;-75
2022/07/30 01:15:31;;;;;;;5.18;3.53;;;;;;;14.84;90.60;101573.63;2006832;29;21494;-77
2022/07/30 01:16:39;;;;;;;6.55;4.00;;;;;;;14.79;90.59;101573.78;2015900;29;20041;-77
2022/07/30 01:17:41;;;;;;;5.32;3.35;;;;;;;14.77;90.87;101569.34;2022921;29;31133;-76
2022/07/30 01:20:17;;;;;;;5.95;3.22;;;;;;;14.72;91.36;101564.13;2009291;29;20134;-76
2022/07/30 01:21:31;;;;;;;5.60;3.25;;;;;;;14.69;91.37;101565.09;2015788;29;27501;-77
2022/07/30 01:23:26;;;;;;;7.28;3.08;;;;;;;14.66;91.57;101570.59;2015934;29;20918;-78
2022/07/30 01:24:42;;;;;;;3.85;2.80;;;;;;;14.62;91.73;101570.72;2019994;29;20142;-76
2022/07/30 01:26:01;;;;;;;6.10;3.60;;;;;;;14.59;91.85;101560.00;2016358;29;21572;-75
2022/07/30 01:27:05;;;;;;;7.00;3.40;;;;;;;14.57;91.84;101559.16;2013643;29;20869;-74
2022/07/30 01:28:13;;;;;;;7.47;3.38;;;;;;;14.55;92.18;101558.31;2023273;29;20150;-73
2022/07/30 01:29:17;;;;;;;4.13;2.92;;;;;;;14.54;92.02;101564.66;2016327;29;27841;-73
2022/07/30 01:30:24;;;;;;;6.13;3.40;;;;;;;14.49;92.16;101557.56;2009645;29;26627;-74
2022/07/30 01:31:27;;;;;;;7.10;3.00;;;;;;;14.50;92.61;101558.47;2009170;29;22803;-73
2022/07/30 01:32:32;;;;;;;6.50;3.38;;;;;;;14.46;92.25;101549.59;2017700;29;20033;-74
2022/07/30 01:33:41;;;;;;;5.15;2.90;;;;;;;14.46;92.73;101562.16;2008575;29;20050;-73
2022/07/30 01:34:45;;;;;;;5.97;3.25;;;;;;;14.43;92.74;101556.88;2011297;29;20153;-73
2022/07/30 01:35:48;;;;;;;6.68;3.38;;;;;;;14.39;92.94;101560.56;2016622;29;20084;-74
2022/07/30 01:36:50;;;;;;;5.75;4.10;;;;;;;14.36;93.05;101558.88;2001855;29;20752;-73
2022/07/30 01:37:55;;;;;;;4.80;3.13;;;;;;;14.34;93.37;101563.41;2001670;29;20854;-74
2022/07/30 01:38:59;;;;;;;5.45;3.30;;;;;;;14.33;92.89;101561.63;2001821;29;20097;-73
2022/07/30 01:40:03;;;;;;;4.75;3.20;;;;;;;14.30;92.98;101561.72;2009083;29;23893;-74
2022/07/30 01:41:07;;;;;;;9.52;3.60;;;;;;;14.25;93.09;101558.28;2017449;29;20052;-74
2022/07/30 01:42:12;;;;;;;4.18;3.03;;;;;;;14.24;93.63;101557.38;2024096;29;20167;-72
2022/07/30 01:43:16;;;;;;;5.05;3.45;;;;;;;14.24;94.06;101557.38;2016327;29;20053;-73
2022/07/30 01:44:24;;;;;;;4.93;3.30;;;;;;;14.23;94.23;101554.72;2009280;29;22121;-73
2022/07/30 01:45:31;;;;;;;4.63;3.05;;;;;;;14.21;94.54;101553.91;2015605;29;20045;-73
2022/07/30 01:46:37;;;;;;;4.25;3.03;;;;;;;14.19;93.95;101558.44;2002140;29;20042;-73
2022/07/30 01:47:41;;;;;;;5.93;3.13;;;;;;;14.16;94.13;101553.13;2002487;29;20042;-73
2022/07/30 01:48:45;;;;;;;4.32;2.40;;;;;;;14.13;94.05;101555.00;2009142;29;20137;-73
2022/07/30 01:49:49;;;;;;;5.32;3.30;;;;;;;14.10;93.95;101554.19;2016436;29;20085;-74
2022/07/30 01:50:55;;;;;;;4.65;3.00;;;;;;;14.06;93.83;101556.09;2016736;29;20041;-73
2022/07/30 01:52:00;;;;;;;3.47;3.17;;;;;;;14.02;94.02;101549.03;2016451;29;20066;-74
2022/07/30 01:53:04;;;;;;;4.32;2.92;;;;;;;14.00;94.26;101558.97;2015722;29;20049;-74
2022/07/30 01:54:09;;;;;;;5.28;3.20;;;;;;;13.97;93.96;101564.44;2008691;29;20621;-73
2022/07/30 01:55:20;;;;;;;4.60;3.13;;;;;;;13.92;93.94;101560.97;2008386;29;20113;-74
2022/07/30 01:56:24;;;;;;;6.78;3.85;;;;;;;13.89;94.61;101561.03;2010099;29;20798;-73
2022/07/30 01:57:28;;;;;;;6.28;3.17;;;;;;;13.86;94.68;101564.72;2001291;29;20053;-74
2022/07/30 01:58:35;;;;;;;3.75;3.30;;;;;;;13.84;94.56;101563.88;2001951;29;20050;-73
2022/07/30 01:59:50;;;;;;;5.00;3.10;;;;;;;13.82;95.08;101554.06;2001570;29;20046;-74
2022/07/30 02:00:58;;;;;;;6.60;3.40;;;;;;;13.80;94.71;101558.59;2004443;29;20065;-73
2022/07/30 02:02:01;;;;;;;3.13;2.80;;;;;;;13.78;95.20;101563.16;2008665;29;20160;-74
2022/07/30 02:03:07;;;;;;;4.88;3.38;;;;;;;13.74;94.81;101557.84;2001151;29;20047;-74
2022/07/30 02:04:12;;;;;;;4.32;3.00;;;;;;;13.72;95.26;101554.31;2008828;29;20034;-73
2022/07/30 02:05:14;;;;;;;4.35;3.03;;;;;;;13.71;95.45;101557.03;2008707;29;20158;-74
2022/07/30 02:06:24;;;;;;;4.65;3.47;;;;;;;13.69;95.37;101549.03;1993591;29;21058;-74
2022/07/30 02:07:40;;;;;;;8.95;4.05;;;;;;;13.68;95.89;101549.94;2002173;29;20050;-74
2022/07/30 02:08:56;;;;;;;5.30;3.55;;;;;;;13.69;96.50;101549.03;2002553;29;20105;-74
2022/07/30 02:10:11;;;;;;;6.50;3.92;;;;;;;13.74;97.25;101552.44;2011875;29;20104;-74
2022/07/30 02:12:27;;;;;;;4.97;3.55;;;;;;;13.70;97.12;101556.16;2008107;29;20937;-74
2022/07/30 02:12:53;;;;;;;5.03;2.92;;;;;;;13.68;96.66;101559.81;2011210;29;20033;-74
2022/07/30 02:13:56;;;;;;;6.57;3.47;;;;;;;13.68;96.54;101555.31;2015979;29;20054;-74
2022/07/30 02:15:29;;;;;;;6.93;3.90;;;;;;;13.66;96.86;101559.88;2015836;29;28870;-74
2022/07/30 02:16:38;;;;;;;7.20;4.70;;;;;;;13.67;97.37;101556.22;2012557;29;20988;-74
2022/07/30 02:18:02;;;;;;;7.65;5.28;;;;;;;13.68;97.32;101552.63;2016248;29;20089;-73
2022/07/30 02:19:13;;;;;;;5.90;4.60;;;;;;;13.67;97.74;101552.66;2008323;29;20170;-74
2022/07/30 02:20:15;;;;;;;5.65;3.88;;;;;;;13.66;98.04;101554.47;2004680;29;20163;-74
2022/07/30 02:21:21;;;;;;;6.15;4.25;;;;;;;13.67;98.05;101552.66;2008497;29;20049;-74
2022/07/30 02:22:29;;;;;;;8.02;4.90;;;;;;;13.66;98.24;101554.47;2016110;29;20117;-74
2022/07/30 02:23:39;;;;;;;9.73;6.32;;;;;;;13.65;98.15;101558.09;2016147;29;20048;-74
2022/07/30 02:24:46;;;;;;;7.28;4.90;;;;;;;13.63;97.85;101549.16;2008944;29;27468;-74
2022/07/30 02:25:51;;;;;;;7.30;5.18;;;;;;;13.66;98.48;101554.47;2010466;29;20118;-74
2022/07/30 02:27:14;;;;;;;6.35;4.80;;;;;;;13.62;97.79;101547.41;2015331;29;20042;-74
2022/07/30 02:28:22;;;;;;;7.10;5.35;;;;;;;13.67;98.95;101550.84;2011612;29;20041;-74
2022/07/30 02:29:24;;;;;;;6.05;4.72;;;;;;;13.65;98.47;101551.81;2013444;29;27685;-74
2022/07/30 02:30:30;;;;;;;8.07;5.40;;;;;;;13.61;98.55;101548.31;2000655;29;21371;-74
2022/07/30 02:31:37;;;;;;;10.90;4.65;;;;;;;13.58;98.36;101550.22;1987456;29;20058;-74
2022/07/30 02:32:43;;;;;;;5.28;4.43;;;;;;;13.54;98.16;101555.66;2002389;29;20760;-74
2022/07/30 02:33:49;;;;;;;4.72;4.15;;;;;;;13.52;98.17;101552.13;2000558;29;20077;-74
2022/07/30 02:34:59;;;;;;;8.38;4.50;;;;;;;13.49;98.47;101551.31;2002684;29;20893;-74
2022/07/30 02:36:02;;;;;;;6.03;4.40;;;;;;;13.46;98.56;101549.63;2000859;29;21050;-74
2022/07/30 02:37:07;;;;;;;5.38;4.85;;;;;;;13.46;98.43;101546.00;1994819;29;20055;-74
2022/07/30 02:38:15;;;;;;;5.63;4.30;;;;;;;13.43;98.65;101549.69;2009158;29;20190;-74
2022/07/30 02:39:20;;;;;;;5.68;4.35;;;;;;;13.41;98.95;101547.97;2015826;29;20133;-74
2022/07/30 02:40:25;;;;;;;9.57;4.20;;;;;;;13.38;98.98;101551.59;2008388;29;30199;-74
2022/07/30 02:41:30;;;;;;;5.95;4.35;;;;;;;13.36;98.68;101546.25;2009405;29;20037;-74
2022/07/30 02:42:33;;;;;;;5.75;4.28;;;;;;;13.34;99.11;101542.72;2008276;29;20064;-73
2022/07/30 02:43:38;;;;;;;8.82;5.32;;;;;;;13.33;99.14;101543.66;2009392;29;20797;-74
2022/07/30 02:44:44;;;;;;;10.55;5.53;;;;;;;13.37;100.00;101536.41;2000770;29;20781;-74
2022/07/30 02:45:49;;;;;;;9.90;5.38;;;;;;;13.34;99.83;101537.34;1987539;29;20058;-74
2022/07/30 02:46:54;;;;;;;8.43;4.78;;;;;;;13.31;99.66;101540.09;2002281;29;20042;-74
2022/07/30 02:48:09;;;;;;;6.40;4.40;;;;;;;13.30;99.51;101538.31;2015208;29;20042;-74
2022/07/30 02:49:13;;;;;;;6.28;4.00;;;;;;;13.28;99.60;101542.84;2008151;29;20049;-74
2022/07/30 02:50:17;;;;;;;7.43;4.60;;;;;;;13.26;99.49;101543.78;1994330;29;20146;-74
2022/07/30 02:51:20;;;;;;;7.90;5.15;;;;;;;13.28;100.00;101544.63;1994147;29;20247;-74
2022/07/30 02:52:25;;;;;;;5.57;4.40;;;;;;;13.24;99.38;101534.88;2001000;29;20046;-74
2022/07/30 02:53:29;;;;;;;6.40;3.50;;;;;;;13.21;99.30;101543.94;2008938;29;20975;-74
2022/07/30 02:54:31;;;;;;;7.03;4.10;;;;;;;13.17;99.46;101534.13;2015913;29;21599;-74
2022/07/30 02:55:34;;;;;;;6.65;4.20;;;;;;;13.11;98.90;101539.69;2008341;29;20042;-74
2022/07/30 02:56:39;;;;;;;6.85;4.30;;;;;;;13.08;99.53;101540.66;2008322;29;20046;-74
2022/07/30 02:57:42;;;;;;;6.65;4.50;;;;;;;13.05;99.42;101539.84;2015888;29;20050;-74
2022/07/30 02:58:47;;;;;;;8.45;4.50;;;;;;;13.05;100.00;101529.09;2008280;29;20261;-74
2022/07/30 02:59:52;;;;;;;7.68;5.10;;;;;;;13.04;99.99;101536.25;2008706;29;20061;-74
2022/07/30 03:00:56;;;;;;;8.48;4.90;;;;;;;13.03;100.00;101536.28;2000627;29;20038;-74
2022/07/30 03:01:59;;;;;;;6.72;4.97;;;;;;;13.03;99.97;101533.59;2001248;29;20104;-74
2022/07/30 03:03:06;;;;;;;6.70;5.10;;;;;;;13.01;100.00;101533.66;2015736;29;20163;-74
2022/07/30 03:04:12;;;;;;;6.57;4.90;;;;;;;13.02;100.00;101539.91;2008476;29;20050;-74
2022/07/30 03:05:15;;;;;;;5.95;4.97;;;;;;;13.01;100.00;101540.81;2009303;29;20164;-74
2022/07/30 03:06:22;;;;;;;6.15;4.28;;;;;;;12.98;100.00;101536.41;2015849;29;21644;-74
2022/07/30 03:07:28;;;;;;;8.00;5.00;;;;;;;12.99;100.00;101538.16;2016018;29;20118;-74
2022/07/30 03:08:32;;;;;;;4.80;3.90;;;;;;;12.99;100.00;101535.47;2000902;29;20050;-74
2022/07/30 03:09:37;;;;;;;6.60;4.35;;;;;;;12.94;100.00;101540.97;2000909;29;20076;-74
2022/07/30 03:10:54;;;;;;;6.80;4.88;;;;;;;12.92;100.00;101544.59;2016000;29;20904;-74
2022/07/30 03:12:01;;;;;;;8.30;4.97;;;;;;;12.89;100.00;101532.13;2015930;29;20060;-74
2022/07/30 03:13:06;;;;;;;6.40;5.20;;;;;;;12.87;100.00;101536.66;2015904;29;20839;-74
2022/07/30 03:14:10;;;;;;;7.65;5.00;;;;;;;12.88;100.00;101542.91;2007647;29;25704;-74
2022/07/30 03:15:14;;;;;;;5.60;5.03;;;;;;;12.88;100.00;101538.41;2000826;29;20062;-74
2022/07/30 03:16:23;;;;;;;5.45;4.88;;;;;;;12.86;100.00;101539.38;2008826;29;20062;-74
2022/07/30 03:17:33;;;;;;;6.15;4.65;;;;;;;12.84;100.00;101539.41;2008214;29;20820;-74
2022/07/30 03:18:37;;;;;;;6.30;5.05;;;;;;;12.84;100.00;101531.34;2009652;29;20054;-74
2022/07/30 03:19:43;;;;;;;6.28;4.85;;;;;;;12.82;100.00;101537.69;2007570;29;26484;-73
2022/07/30 03:20:50;;;;;;;6.70;4.45;;;;;;;12.80;100.00;101530.53;2008986;29;20050;-74
2022/07/30 03:21:55;;;;;;;5.50;5.00;;;;;;;12.78;100.00;101532.38;2015415;29;22846;-73
2022/07/30 03:23:01;;;;;;;7.03;5.40;;;;;;;12.76;100.00;101533.34;2023156;29;25638;-74
2022/07/30 03:24:11;;;;;;;5.10;4.60;;;;;;;12.74;100.00;101533.38;2022821;29;20124;-74
2022/07/30 03:25:20;;;;;;;9.00;5.25;;;;;;;12.73;100.00;101534.25;2015803;29;20049;-74
2022/07/30 03:26:24;;;;;;;9.00;5.45;;;;;;;12.75;100.00;101534.25;2015385;29;31922;-74
2022/07/30 03:27:26;;;;;;;7.60;5.45;;;;;;;12.74;100.00;101529.75;2016064;29;20166;-74
2022/07/30 03:28:35;;;;;;;6.47;5.25;;;;;;;12.73;100.00;101534.25;2015432;29;20038;-74
2022/07/30 03:29:40;;;;;;;9.25;5.85;;;;;;;12.71;100.00;101538.78;2008136;29;20277;-74
2022/07/30 03:30:42;;;;;;;6.20;4.50;;;;;;;12.72;100.00;101535.19;2015459;29;20049;-74
2022/07/30 03:31:48;;;;;;;8.43;5.45;;;;;;;12.68;100.00;101529.91;2015211;29;20049;-74
2022/07/30 03:32:52;;;;;;;6.95;5.15;;;;;;;12.66;100.00;101532.63;2007707;29;21242;-74
2022/07/30 03:33:54;;;;;;;7.45;4.97;;;;;;;12.66;100.00;101537.13;2016115;29;20037;-74
2022/07/30 03:34:59;;;;;;;6.68;4.38;;;;;;;12.62;100.00;101538.13;2023094;29;20052;-74
2022/07/30 03:36:07;;;;;;;8.68;4.93;;;;;;;12.57;100.00;101535.53;2008070;29;20172;-74
2022/07/30 03:37:13;;;;;;;8.82;4.97;;;;;;;12.54;100.00;101541.88;2001802;29;20150;-74
2022/07/30 03:38:16;;;;;;;6.03;4.38;;;;;;;12.53;100.00;101539.19;2016207;29;20049;-72
2022/07/30 03:39:21;;;;;;;7.18;5.20;;;;;;;12.52;100.00;101540.09;2023544;29;20153;-74
2022/07/30 03:40:25;;;;;;;7.82;5.05;;;;;;;12.52;100.00;101549.03;2017057;29;21036;-74
2022/07/30 03:41:28;;;;;;;7.10;5.35;;;;;;;12.50;100.00;101545.50;2016960;29;20049;-74
2022/07/30 03:42:34;;;;;;;6.80;5.47;;;;;;;12.51;100.00;101541.91;2024900;29;20077;-74
2022/07/30 03:43:39;;;;;;;6.85;5.63;;;;;;;12.51;100.00;101547.28;2016595;29;20460;-74
2022/07/30 03:44:44;;;;;;;9.10;5.05;;;;;;;12.49;100.00;101546.44;2009867;29;20773;-74
2022/07/30 03:45:48;;;;;;;6.68;5.75;;;;;;;12.50;100.00;101547.31;2009598;29;20975;-74
2022/07/30 03:46:56;;;;;;;7.10;5.95;;;;;;;12.52;100.00;101545.47;2009762;29;20138;-74
2022/07/30 03:47:59;;;;;;;7.10;5.63;;;;;;;12.51;100.00;101549.97;2009484;29;20089;-74
2022/07/30 03:49:02;;;;;;;6.00;5.15;;;;;;;12.51;100.00;101544.59;2009490;29;20049;-74
2022/07/30 03:50:05;;;;;;;7.90;5.70;;;;;;;12.51;100.00;101549.97;2016752;29;20041;-74
2022/07/30 03:51:09;;;;;;;6.22;5.20;;;;;;;12.51;100.00;101547.28;2016945;29;20058;-74
2022/07/30 03:52:14;;;;;;;8.25;6.07;;;;;;;12.51;100.00;101549.09;2009289;29;20046;-74
2022/07/30 03:53:23;;;;;;;11.70;6.90;;;;;;;12.51;100.00;101554.47;2010032;29;20046;-74
2022/07/30 03:54:54;;;;;;;5.95;5.38;;;;;;;12.51;100.00;101549.09;2009446;29;20110;-74
2022/07/30 03:56:17;;;;;;;6.90;5.63;;;;;;;12.53;100.00;101558.88;2015333;29;20046;-74
2022/07/30 03:57:38;;;;;;;7.63;6.75;;;;;;;12.54;100.00;101557.97;2016800;29;20883;-74
2022/07/30 03:58:40;;;;;;;7.70;6.38;;;;;;;12.53;100.00;101550.81;2017771;29;20125;-75
2022/07/30 03:59:43;;;;;;;8.40;7.15;;;;;;;12.56;100.00;101558.81;2009025;29;20049;-74
2022/07/30 04:00:49;;;;;;;9.95;7.68;;;;;;;12.57;100.00;101562.38;2009633;29;20049;-74
2022/07/30 04:01:51;;;;;;;8.95;6.55;;;;;;;12.59;100.00;101563.25;2016542;29;20161;-74
2022/07/30 04:03:25;;;;;;;9.65;6.50;;;;;;;12.59;100.00;101564.13;2009468;29;20099;-74
2022/07/30 04:04:29;;;;;;;8.65;5.97;;;;;;;12.57;100.00;101565.94;2018394;29;20056;-74
2022/07/30 04:05:31;;;;;;;8.20;6.45;;;;;;;12.56;100.00;101556.13;2008525;29;20246;-74
2022/07/30 04:06:39;;;;;;;8.63;6.35;;;;;;;12.56;100.00;101563.28;2011182;29;20271;-74
2022/07/30 04:07:41;;;;;;;8.20;6.28;;;;;;;12.56;100.00;101558.81;2016744;29;20847;-74
2022/07/30 04:08:46;;;;;;;8.88;6.70;;;;;;;12.56;100.00;101558.81;2017413;29;20085;-74
2022/07/30 04:09:48;;;;;;;6.18;5.57;;;;;;;12.55;100.00;101566.91;2023727;29;20080;-74
2022/07/30 04:11:21;;;;;;;6.95;5.65;;;;;;;12.54;100.00;101560.66;2012989;29;20074;-74
2022/07/30 04:12:44;;;;;;;6.68;4.88;;;;;;;12.53;100.00;101569.63;2016924;29;21069;-74
2022/07/30 04:13:45;;;;;;;7.68;6.25;;;;;;;12.51;100.00;101566.09;2016829;29;20060;-74
2022/07/30 04:14:56;;;;;;;7.60;5.65;;;;;;;12.51;100.00;101567.91;2024829;29;20906;-74
2022/07/30 04:16:06;;;;;;;7.63;6.40;;;;;;;12.52;100.00;101566.97;2016891;29;20176;-75
2022/07/30 04:17:35;;;;;;;;;;;;;;;12.54;100.00;101560.66;2013408;29;20045;-74
2022/07/30 04:18:48;;;;;;;7.32;6.30;;;;;;;12.54;100.00;101574.09;2018063;29;19931;-74
2022/07/30 04:19:56;;;;;;;10.32;6.55;;;;;;;12.54;100.00;101566.03;2016862;29;21006;-75
2022/07/30 04:21:00;;;;;;;9.50;7.20;;;;;;;12.57;100.00;101570.44;2018849;29;20862;-75
2022/07/30 04:22:03;;;;;;;7.85;6.88;;;;;;;12.60;100.00;101570.38;2016723;29;20037;-74
2022/07/30 04:23:11;;;;;;;8.43;6.53;;;;;;;12.63;100.00;101574.81;2009565;29;20106;-75
2022/07/30 04:24:19;;;;;;;10.40;7.78;;;;;;;12.67;100.00;101571.13;2011217;29;20050;-75
2022/07/30 04:25:22;;;;;;;10.68;7.25;;;;;;;12.72;100.00;101579.97;2017382;29;20076;-75
2022/07/30 04:26:25;;;;;;;9.77;7.03;;;;;;;12.78;100.00;101579.84;2009583;29;20058;-75
2022/07/30 04:27:32;;;;;;;9.27;6.90;;;;;;;12.86;100.00;101577.00;2009289;29;21008;-75
2022/07/30 04:28:35;;;;;;;7.60;6.75;;;;;;;13.01;100.00;101575.75;2009898;29;20050;-75
2022/07/30 04:29:38;;;;;;;6.15;5.43;;;;;;;13.18;100.00;101579.81;2017084;29;20053;-75
2022/07/30 04:30:43;;;;;;;7.72;6.32;;;;;;;13.38;100.00;101591.06;2017078;29;20077;-73
2022/07/30 04:31:45;;;;;;;6.10;5.60;;;;;;;13.54;100.00;101587.06;2016805;29;20088;-74
2022/07/30 04:33:07;;;;;;;6.90;5.97;;;;;;;13.67;100.00;101582.25;2016923;29;20045;-74
2022/07/30 04:34:15;;;;;;;10.70;6.82;;;;;;;13.88;100.00;101583.53;2012693;29;20064;-74
2022/07/30 04:35:30;;;;;;;7.32;5.53;;;;;;;14.25;100.00;101583.41;2010275;29;21021;-74
2022/07/30 04:36:56;;;;;;;5.55;5.00;;;;;;;14.84;98.93;101584.41;2013691;29;20903;-75
2022/07/30 04:37:59;;;;;;;6.95;4.65;;;;;;;15.26;97.33;101578.63;2012756;29;20041;-74
2022/07/30 04:39:00;;;;;;;8.10;4.72;;;;;;;15.71;94.99;101579.84;2017031;29;20057;-74
2022/07/30 04:40:03;;;;;;;6.53;4.40;;;;;;;16.12;92.92;101578.44;2024312;29;20099;-75
2022/07/30 04:41:05;;;;;;;5.32;4.13;;;;;;;16.56;90.07;101566.91;2024446;29;20045;-75
2022/07/30 04:42:28;;;;;;;6.07;3.95;;;;;;;17.10;86.75;101568.47;2022216;29;20938;-75
2022/07/30 04:43:42;;;;;;;3.45;3.03;;;;;;;17.64;84.41;101574.34;2016443;29;20041;-75
2022/07/30 04:44:44;;;;;;;4.35;3.30;;;;;;;18.05;82.56;101569.00;2010734;29;20058;-75
2022/07/30 04:45:59;;;;;;;4.85;3.00;;;;;;;18.58;79.76;101570.22;2018037;29;20074;-74
2022/07/30 04:47:03;;;;;;;3.47;3.05;;;;;;;18.88;77.55;101572.50;2016469;29;20050;-75
2022/07/30 04:48:09;;;;;;;3.63;2.95;;;;;;;19.30;75.70;101567.75;2017462;29;20157;-75
2022/07/30 04:49:23;;;;;;;4.45;3.20;;;;;;;19.72;73.63;101562.00;2024078;29;20041;-75
2022/07/30 04:50:28;;;;;;;5.25;3.05;;;;;;;20.07;72.78;101567.47;2016533;29;20060;-75
2022/07/30 04:51:34;;;;;;;4.82;2.67;;;;;;;20.38;70.80;101566.69;2017286;29;20058;-75
2022/07/30 04:52:38;;;;;;;3.90;2.53;;;;;;;20.69;69.12;101562.34;2023170;29;20041;-75
2022/07/30 04:53:45;;;;;;;7.10;3.05;;;;;;;21.08;68.46;101561.03;2001600;29;20047;-75
2022/07/30 04:55:02;;;;;;;4.30;2.50;;;;;;;21.43;67.21;101557.25;2011039;29;20085;-75
2022/07/30 04:56:05;;;;;;;6.15;2.30;;;;;;;21.78;65.76;101559.75;2023851;29;20045;-75
2022/07/30 04:57:11;;;;;;;4.60;2.30;;;;;;;22.06;63.31;101559.81;2023723;29;20139;-75
2022/07/30 04:58:17;;;;;;;5.65;2.88;;;;;;;22.11;61.75;101552.22;2016504;29;21003;-75
2022/07/30 04:59:23;;;;;;;4.05;2.55;;;;;;;22.64;62.67;101558.03;2010679;29;21057;-75
2022/07/30 05:00:27;;;;;;;3.92;2.00;;;;;;;23.04;61.45;101555.50;2024392;29;20128;-75
2022/07/30 05:01:37;;;;;;;3.38;1.98;;;;;;;23.34;58.85;101564.47;2024066;29;20045;-75
2022/07/30 05:02:43;;;;;;;3.63;2.30;;;;;;;23.50;58.25;101559.72;2016629;29;20065;-75
2022/07/30 05:03:46;;;;;;;2.25;1.92;;;;;;;23.87;58.44;101556.34;2016763;29;20863;-75
2022/07/30 05:04:49;;;;;;;4.72;2.08;;;;;;;24.10;55.94;101552.03;2024289;29;20939;-75
2022/07/30 05:05:52;;;;;;;3.35;2.40;;;;;;;24.25;55.71;101555.56;2024438;29;20049;-75
2022/07/30 05:07:00;;;;;;;5.38;2.20;;;;;;;24.62;55.28;101553.81;2024064;29;21065;-75
2022/07/30 05:08:04;;;;;;;4.00;2.20;;;;;;;24.85;54.06;101554.84;2024220;29;20657;-75
2022/07/30 05:09:08;;;;;;;4.10;2.17;;;;;;;25.10;53.23;101555.78;2008912;29;20164;-75